sensor_id;sensor_type;location;lat;lon;timestamp;P1;durP1;ratioP1;P2;durP2;ratioP2
43118;SDS011;28729;49.838;8.650;2023-07-28T00:02:50;11.35;;;4.80;;
43118;SDS011;28729;49.838;8.650;2023-07-28T00:06:52;7.50;;;4.80;;
43118;SDS011;28729;49.838;8.650;2023-07-28T00:10:54;9.02;;;4.65;;
43118;SDS011;28729;49.838;8.650;2023-07-28T00:14:56;9.75;;;4.50;;
43118;SDS011;28729;49.838;8.650;2023-07-28T00:18:58;7.03;;;4.43;;
43118;SDS011;28729;49.838;8.650;2023-07-28T00:22:59;6.68;;;4.30;;
43118;SDS011;28729;49.838;8.650;2023-07-28T00:27:01;6.78;;;4.05;;
43118;SDS011;28729;49.838;8.650;2023-07-28T00:31:03;10.05;;;5.10;;
43118;SDS011;28729;49.838;8.650;2023-07-28T00:35:05;11.05;;;4.43;;
43118;SDS011;28729;49.838;8.650;2023-07-28T00:39:07;7.07;;;4.47;;
43118;SDS011;28729;49.838;8.650;2023-07-28T00:43:09;6.25;;;4.22;;
43118;SDS011;28729;49.838;8.650;2023-07-28T00:47:11;8.23;;;4.53;;
43118;SDS011;28729;49.838;8.650;2023-07-28T00:51:13;8.25;;;5.07;;
43118;SDS011;28729;49.838;8.650;2023-07-28T00:55:15;9.90;;;5.53;;
43118;SDS011;28729;49.838;8.650;2023-07-28T00:59:17;11.40;;;4.97;;
43118;SDS011;28729;49.838;8.650;2023-07-28T01:03:20;9.65;;;5.18;;
43118;SDS011;28729;49.838;8.650;2023-07-28T01:11:30;9.07;;;4.60;;
43118;SDS011;28729;49.838;8.650;2023-07-28T01:15:32;8.75;;;4.85;;
43118;SDS011;28729;49.838;8.650;2023-07-28T01:19:34;8.85;;;4.50;;
43118;SDS011;28729;49.838;8.650;2023-07-28T01:23:44;7.77;;;4.70;;
43118;SDS011;28729;49.838;8.650;2023-07-28T01:28:09;7.82;;;4.35;;
43118;SDS011;28729;49.838;8.650;2023-07-28T01:32:14;9.80;;;4.45;;
43118;SDS011;28729;49.838;8.650;2023-07-28T01:36:16;8.83;;;5.20;;
43118;SDS011;28729;49.838;8.650;2023-07-28T01:40:20;9.95;;;5.05;;
43118;SDS011;28729;49.838;8.650;2023-07-28T01:44:21;14.15;;;5.05;;
43118;SDS011;28729;49.838;8.650;2023-07-28T01:48:24;8.77;;;4.95;;
43118;SDS011;28729;49.838;8.650;2023-07-28T01:52:27;10.80;;;5.50;;
43118;SDS011;28729;49.838;8.650;2023-07-28T01:56:29;12.65;;;6.13;;
43118;SDS011;28729;49.838;8.650;2023-07-28T02:00:32;9.65;;;4.93;;
43118;SDS011;28729;49.838;8.650;2023-07-28T02:04:34;11.90;;;5.70;;
43118;SDS011;28729;49.838;8.650;2023-07-28T02:08:36;7.75;;;5.00;;
43118;SDS011;28729;49.838;8.650;2023-07-28T02:12:38;11.07;;;5.35;;
43118;SDS011;28729;49.838;8.650;2023-07-28T02:16:40;9.05;;;5.10;;
43118;SDS011;28729;49.838;8.650;2023-07-28T02:20:42;10.63;;;5.03;;
43118;SDS011;28729;49.838;8.650;2023-07-28T02:24:44;9.90;;;5.07;;
43118;SDS011;28729;49.838;8.650;2023-07-28T02:28:46;11.20;;;6.03;;
43118;SDS011;28729;49.838;8.650;2023-07-28T02:32:48;12.27;;;5.72;;
43118;SDS011;28729;49.838;8.650;2023-07-28T02:36:50;10.95;;;6.22;;
43118;SDS011;28729;49.838;8.650;2023-07-28T02:40:52;12.48;;;6.55;;
43118;SDS011;28729;49.838;8.650;2023-07-28T02:44:54;9.80;;;6.07;;
43118;SDS011;28729;49.838;8.650;2023-07-28T02:48:56;10.77;;;5.67;;
43118;SDS011;28729;49.838;8.650;2023-07-28T02:52:58;12.13;;;6.25;;
43118;SDS011;28729;49.838;8.650;2023-07-28T02:57:00;10.75;;;5.60;;
43118;SDS011;28729;49.838;8.650;2023-07-28T03:01:02;11.27;;;5.93;;
43118;SDS011;28729;49.838;8.650;2023-07-28T03:05:09;9.10;;;4.95;;
43118;SDS011;28729;49.838;8.650;2023-07-28T03:09:30;8.68;;;5.00;;
43118;SDS011;28729;49.838;8.650;2023-07-28T03:13:35;9.20;;;4.78;;
43118;SDS011;28729;49.838;8.650;2023-07-28T03:17:37;10.53;;;4.80;;
43118;SDS011;28729;49.838;8.650;2023-07-28T03:21:39;8.05;;;4.70;;
43118;SDS011;28729;49.838;8.650;2023-07-28T03:25:41;7.73;;;4.43;;
43118;SDS011;28729;49.838;8.650;2023-07-28T03:29:43;8.25;;;4.80;;
43118;SDS011;28729;49.838;8.650;2023-07-28T03:33:47;13.15;;;5.30;;
43118;SDS011;28729;49.838;8.650;2023-07-28T03:37:48;8.55;;;4.70;;
43118;SDS011;28729;49.838;8.650;2023-07-28T03:41:50;11.35;;;5.38;;
43118;SDS011;28729;49.838;8.650;2023-07-28T03:45:52;8.45;;;4.82;;
43118;SDS011;28729;49.838;8.650;2023-07-28T03:49:54;8.05;;;4.65;;
43118;SDS011;28729;49.838;8.650;2023-07-28T03:53:57;7.65;;;4.32;;
43118;SDS011;28729;49.838;8.650;2023-07-28T03:57:58;7.45;;;3.92;;
43118;SDS011;28729;49.838;8.650;2023-07-28T04:02:00;7.22;;;4.25;;
43118;SDS011;28729;49.838;8.650;2023-07-28T04:06:09;8.48;;;4.32;;
43118;SDS011;28729;49.838;8.650;2023-07-28T04:10:13;8.00;;;4.78;;
43118;SDS011;28729;49.838;8.650;2023-07-28T04:14:14;7.80;;;5.00;;
43118;SDS011;28729;49.838;8.650;2023-07-28T04:18:16;10.40;;;5.53;;
43118;SDS011;28729;49.838;8.650;2023-07-28T04:26:25;9.57;;;5.78;;
43118;SDS011;28729;49.838;8.650;2023-07-28T04:30:33;10.52;;;5.50;;
43118;SDS011;28729;49.838;8.650;2023-07-28T04:34:36;9.83;;;4.83;;
43118;SDS011;28729;49.838;8.650;2023-07-28T04:38:49;7.68;;;4.38;;
43118;SDS011;28729;49.838;8.650;2023-07-28T04:42:51;7.10;;;4.15;;
43118;SDS011;28729;49.838;8.650;2023-07-28T04:46:55;6.55;;;3.88;;
43118;SDS011;28729;49.838;8.650;2023-07-28T04:50:57;7.13;;;4.15;;
43118;SDS011;28729;49.838;8.650;2023-07-28T04:55:18;7.22;;;4.30;;
43118;SDS011;28729;49.838;8.650;2023-07-28T04:59:20;6.03;;;3.42;;
43118;SDS011;28729;49.838;8.650;2023-07-28T05:03:22;5.78;;;3.88;;
43118;SDS011;28729;49.838;8.650;2023-07-28T05:07:32;8.63;;;3.97;;
43118;SDS011;28729;49.838;8.650;2023-07-28T05:11:33;6.30;;;3.75;;
43118;SDS011;28729;49.838;8.650;2023-07-28T05:15:36;7.22;;;3.67;;
43118;SDS011;28729;49.838;8.650;2023-07-28T05:19:40;6.53;;;4.25;;
43118;SDS011;28729;49.838;8.650;2023-07-28T05:23:45;6.18;;;3.75;;
43118;SDS011;28729;49.838;8.650;2023-07-28T05:27:47;5.95;;;3.72;;
43118;SDS011;28729;49.838;8.650;2023-07-28T05:31:49;7.50;;;3.93;;
43118;SDS011;28729;49.838;8.650;2023-07-28T05:36:01;6.70;;;3.38;;
43118;SDS011;28729;49.838;8.650;2023-07-28T05:40:07;4.95;;;3.70;;
43118;SDS011;28729;49.838;8.650;2023-07-28T05:44:10;5.15;;;3.42;;
43118;SDS011;28729;49.838;8.650;2023-07-28T05:48:12;5.47;;;3.43;;
43118;SDS011;28729;49.838;8.650;2023-07-28T05:52:14;6.57;;;3.55;;
43118;SDS011;28729;49.838;8.650;2023-07-28T05:56:16;6.77;;;3.63;;
43118;SDS011;28729;49.838;8.650;2023-07-28T06:00:17;6.47;;;4.07;;
43118;SDS011;28729;49.838;8.650;2023-07-28T06:04:22;7.28;;;3.83;;
43118;SDS011;28729;49.838;8.650;2023-07-28T06:08:30;8.43;;;3.90;;
43118;SDS011;28729;49.838;8.650;2023-07-28T06:12:31;5.83;;;4.13;;
43118;SDS011;28729;49.838;8.650;2023-07-28T06:16:33;5.28;;;3.40;;
43118;SDS011;28729;49.838;8.650;2023-07-28T06:20:35;4.97;;;3.47;;
43118;SDS011;28729;49.838;8.650;2023-07-28T06:24:38;5.00;;;2.90;;
43118;SDS011;28729;49.838;8.650;2023-07-28T06:28:40;4.40;;;2.83;;
43118;SDS011;28729;49.838;8.650;2023-07-28T06:36:44;8.80;;;3.03;;
43118;SDS011;28729;49.838;8.650;2023-07-28T06:40:46;4.65;;;2.58;;
43118;SDS011;28729;49.838;8.650;2023-07-28T06:44:48;3.78;;;2.90;;
43118;SDS011;28729;49.838;8.650;2023-07-28T06:48:50;5.70;;;3.10;;
43118;SDS011;28729;49.838;8.650;2023-07-28T06:52:52;4.43;;;3.03;;
43118;SDS011;28729;49.838;8.650;2023-07-28T06:56:59;5.72;;;3.03;;
43118;SDS011;28729;49.838;8.650;2023-07-28T07:01:01;5.63;;;3.17;;
43118;SDS011;28729;49.838;8.650;2023-07-28T07:05:04;4.70;;;3.33;;
43118;SDS011;28729;49.838;8.650;2023-07-28T07:09:07;6.38;;;3.22;;
43118;SDS011;28729;49.838;8.650;2023-07-28T07:13:12;5.90;;;3.15;;
43118;SDS011;28729;49.838;8.650;2023-07-28T07:17:13;8.77;;;3.33;;
43118;SDS011;28729;49.838;8.650;2023-07-28T07:21:15;9.67;;;3.60;;
43118;SDS011;28729;49.838;8.650;2023-07-28T07:25:17;5.68;;;3.47;;
43118;SDS011;28729;49.838;8.650;2023-07-28T07:29:19;4.18;;;2.90;;
43118;SDS011;28729;49.838;8.650;2023-07-28T07:33:20;4.70;;;3.38;;
43118;SDS011;28729;49.838;8.650;2023-07-28T07:37:22;4.57;;;2.80;;
43118;SDS011;28729;49.838;8.650;2023-07-28T07:41:24;9.63;;;3.08;;
43118;SDS011;28729;49.838;8.650;2023-07-28T07:45:26;5.00;;;2.93;;
43118;SDS011;28729;49.838;8.650;2023-07-28T07:49:28;6.00;;;2.83;;
43118;SDS011;28729;49.838;8.650;2023-07-28T07:53:30;3.83;;;2.57;;
43118;SDS011;28729;49.838;8.650;2023-07-28T07:57:32;5.45;;;2.47;;
43118;SDS011;28729;49.838;8.650;2023-07-28T08:01:34;4.90;;;2.28;;
43118;SDS011;28729;49.838;8.650;2023-07-28T08:05:36;3.65;;;2.20;;
43118;SDS011;28729;49.838;8.650;2023-07-28T08:09:38;3.83;;;2.40;;
43118;SDS011;28729;49.838;8.650;2023-07-28T08:13:40;5.50;;;2.63;;
43118;SDS011;28729;49.838;8.650;2023-07-28T08:17:42;3.30;;;2.13;;
43118;SDS011;28729;49.838;8.650;2023-07-28T08:21:44;3.47;;;2.37;;
43118;SDS011;28729;49.838;8.650;2023-07-28T08:25:45;4.87;;;2.60;;
43118;SDS011;28729;49.838;8.650;2023-07-28T08:29:47;5.40;;;2.50;;
43118;SDS011;28729;49.838;8.650;2023-07-28T08:33:50;4.73;;;2.20;;
43118;SDS011;28729;49.838;8.650;2023-07-28T08:41:57;3.53;;;2.20;;
43118;SDS011;28729;49.838;8.650;2023-07-28T08:46:02;3.50;;;2.55;;
43118;SDS011;28729;49.838;8.650;2023-07-28T08:50:05;4.47;;;2.33;;
43118;SDS011;28729;49.838;8.650;2023-07-28T08:54:10;4.78;;;2.00;;
43118;SDS011;28729;49.838;8.650;2023-07-28T08:58:19;3.08;;;2.20;;
43118;SDS011;28729;49.838;8.650;2023-07-28T09:02:22;3.40;;;2.28;;
43118;SDS011;28729;49.838;8.650;2023-07-28T09:06:28;4.50;;;2.58;;
43118;SDS011;28729;49.838;8.650;2023-07-28T09:10:43;8.07;;;2.92;;
43118;SDS011;28729;49.838;8.650;2023-07-28T09:14:59;4.90;;;2.78;;
43118;SDS011;28729;49.838;8.650;2023-07-28T09:19:05;3.72;;;2.28;;
43118;SDS011;28729;49.838;8.650;2023-07-28T09:23:08;3.30;;;2.03;;
43118;SDS011;28729;49.838;8.650;2023-07-28T09:27:21;4.03;;;2.17;;
43118;SDS011;28729;49.838;8.650;2023-07-28T09:31:30;3.80;;;2.30;;
43118;SDS011;28729;49.838;8.650;2023-07-28T09:35:35;6.05;;;2.40;;
43118;SDS011;28729;49.838;8.650;2023-07-28T09:39:48;5.25;;;2.05;;
43118;SDS011;28729;49.838;8.650;2023-07-28T09:43:50;2.87;;;2.07;;
43118;SDS011;28729;49.838;8.650;2023-07-28T09:47:53;3.05;;;1.80;;
43118;SDS011;28729;49.838;8.650;2023-07-28T09:52:00;2.35;;;1.48;;
43118;SDS011;28729;49.838;8.650;2023-07-28T09:56:06;2.80;;;1.48;;
43118;SDS011;28729;49.838;8.650;2023-07-28T10:00:10;4.63;;;1.90;;
43118;SDS011;28729;49.838;8.650;2023-07-28T10:04:14;3.03;;;1.42;;
43118;SDS011;28729;49.838;8.650;2023-07-28T10:08:16;2.40;;;1.33;;
43118;SDS011;28729;49.838;8.650;2023-07-28T10:12:18;8.57;;;1.90;;
43118;SDS011;28729;49.838;8.650;2023-07-28T10:16:38;3.40;;;2.03;;
43118;SDS011;28729;49.838;8.650;2023-07-28T10:20:42;4.18;;;2.00;;
43118;SDS011;28729;49.838;8.650;2023-07-28T10:24:54;3.05;;;2.22;;
43118;SDS011;28729;49.838;8.650;2023-07-28T10:29:07;4.07;;;1.92;;
43118;SDS011;28729;49.838;8.650;2023-07-28T10:33:20;2.92;;;1.83;;
43118;SDS011;28729;49.838;8.650;2023-07-28T10:37:31;5.65;;;1.80;;
43118;SDS011;28729;49.838;8.650;2023-07-28T10:41:36;3.60;;;1.83;;
43118;SDS011;28729;49.838;8.650;2023-07-28T10:45:38;4.22;;;1.80;;
43118;SDS011;28729;49.838;8.650;2023-07-28T10:53:42;4.05;;;1.65;;
43118;SDS011;28729;49.838;8.650;2023-07-28T10:57:45;3.67;;;1.67;;
43118;SDS011;28729;49.838;8.650;2023-07-28T11:01:47;3.55;;;2.00;;
43118;SDS011;28729;49.838;8.650;2023-07-28T11:05:49;2.40;;;1.92;;
43118;SDS011;28729;49.838;8.650;2023-07-28T11:09:52;3.35;;;2.00;;
43118;SDS011;28729;49.838;8.650;2023-07-28T11:13:53;2.97;;;1.50;;
43118;SDS011;28729;49.838;8.650;2023-07-28T11:17:55;2.90;;;1.67;;
43118;SDS011;28729;49.838;8.650;2023-07-28T11:21:57;2.55;;;1.40;;
43118;SDS011;28729;49.838;8.650;2023-07-28T11:25:59;2.58;;;1.50;;
43118;SDS011;28729;49.838;8.650;2023-07-28T11:30:01;4.03;;;1.70;;
43118;SDS011;28729;49.838;8.650;2023-07-28T11:34:16;2.65;;;1.55;;
43118;SDS011;28729;49.838;8.650;2023-07-28T11:38:19;2.55;;;1.45;;
43118;SDS011;28729;49.838;8.650;2023-07-28T11:42:21;5.80;;;1.98;;
43118;SDS011;28729;49.838;8.650;2023-07-28T11:46:33;3.33;;;1.93;;
43118;SDS011;28729;49.838;8.650;2023-07-28T11:50:40;2.35;;;1.60;;
43118;SDS011;28729;49.838;8.650;2023-07-28T11:54:43;2.92;;;1.70;;
43118;SDS011;28729;49.838;8.650;2023-07-28T11:58:49;1.98;;;1.33;;
43118;SDS011;28729;49.838;8.650;2023-07-28T12:03:03;2.83;;;1.63;;
43118;SDS011;28729;49.838;8.650;2023-07-28T12:07:10;1.75;;;1.30;;
43118;SDS011;28729;49.838;8.650;2023-07-28T12:11:20;1.95;;;1.30;;
43118;SDS011;28729;49.838;8.650;2023-07-28T12:15:42;3.35;;;1.60;;
43118;SDS011;28729;49.838;8.650;2023-07-28T12:24:12;3.05;;;1.80;;
43118;SDS011;28729;49.838;8.650;2023-07-28T12:28:14;3.22;;;1.90;;
43118;SDS011;28729;49.838;8.650;2023-07-28T12:32:20;2.83;;;1.55;;
43118;SDS011;28729;49.838;8.650;2023-07-28T12:36:35;1.80;;;1.42;;
43118;SDS011;28729;49.838;8.650;2023-07-28T12:40:40;2.45;;;1.60;;
43118;SDS011;28729;49.838;8.650;2023-07-28T12:44:45;2.35;;;1.60;;
43118;SDS011;28729;49.838;8.650;2023-07-28T12:48:50;2.65;;;1.90;;
43118;SDS011;28729;49.838;8.650;2023-07-28T12:52:52;3.15;;;1.98;;
43118;SDS011;28729;49.838;8.650;2023-07-28T12:56:56;2.95;;;1.73;;
43118;SDS011;28729;49.838;8.650;2023-07-28T13:01:02;3.08;;;1.75;;
43118;SDS011;28729;49.838;8.650;2023-07-28T13:05:06;2.78;;;1.50;;
43118;SDS011;28729;49.838;8.650;2023-07-28T13:09:08;2.50;;;1.30;;
43118;SDS011;28729;49.838;8.650;2023-07-28T13:13:13;3.15;;;1.88;;
43118;SDS011;28729;49.838;8.650;2023-07-28T13:17:15;2.17;;;1.40;;
43118;SDS011;28729;49.838;8.650;2023-07-28T13:21:18;3.53;;;1.80;;
43118;SDS011;28729;49.838;8.650;2023-07-28T13:25:20;4.38;;;1.70;;
43118;SDS011;28729;49.838;8.650;2023-07-28T13:29:22;4.07;;;1.90;;
43118;SDS011;28729;49.838;8.650;2023-07-28T13:33:24;3.80;;;1.77;;
43118;SDS011;28729;49.838;8.650;2023-07-28T13:37:29;2.75;;;1.92;;
43118;SDS011;28729;49.838;8.650;2023-07-28T13:41:34;2.20;;;1.85;;
43118;SDS011;28729;49.838;8.650;2023-07-28T13:45:40;3.10;;;1.90;;
43118;SDS011;28729;49.838;8.650;2023-07-28T13:49:43;2.67;;;1.73;;
43118;SDS011;28729;49.838;8.650;2023-07-28T13:53:47;3.83;;;1.98;;
43118;SDS011;28729;49.838;8.650;2023-07-28T13:57:52;9.25;;;3.25;;
43118;SDS011;28729;49.838;8.650;2023-07-28T14:01:54;2.60;;;1.67;;
43118;SDS011;28729;49.838;8.650;2023-07-28T14:10:02;3.90;;;1.88;;
43118;SDS011;28729;49.838;8.650;2023-07-28T14:14:07;3.10;;;2.10;;
43118;SDS011;28729;49.838;8.650;2023-07-28T14:18:09;4.13;;;2.00;;
43118;SDS011;28729;49.838;8.650;2023-07-28T14:22:12;3.17;;;2.30;;
43118;SDS011;28729;49.838;8.650;2023-07-28T14:26:13;3.50;;;2.10;;
43118;SDS011;28729;49.838;8.650;2023-07-28T14:30:15;3.97;;;2.20;;
43118;SDS011;28729;49.838;8.650;2023-07-28T14:34:17;2.77;;;2.00;;
43118;SDS011;28729;49.838;8.650;2023-07-28T14:38:19;3.15;;;2.08;;
43118;SDS011;28729;49.838;8.650;2023-07-28T14:42:22;2.53;;;1.88;;
43118;SDS011;28729;49.838;8.650;2023-07-28T14:46:23;4.17;;;2.10;;
43118;SDS011;28729;49.838;8.650;2023-07-28T14:50:26;2.85;;;2.00;;
43118;SDS011;28729;49.838;8.650;2023-07-28T14:54:29;3.58;;;1.70;;
43118;SDS011;28729;49.838;8.650;2023-07-28T14:58:31;3.10;;;1.87;;
43118;SDS011;28729;49.838;8.650;2023-07-28T15:06:35;3.25;;;1.80;;
43118;SDS011;28729;49.838;8.650;2023-07-28T15:10:37;2.93;;;1.70;;
43118;SDS011;28729;49.838;8.650;2023-07-28T15:14:38;5.63;;;2.05;;
43118;SDS011;28729;49.838;8.650;2023-07-28T15:18:40;3.07;;;1.80;;
43118;SDS011;28729;49.838;8.650;2023-07-28T15:22:46;4.10;;;2.08;;
43118;SDS011;28729;49.838;8.650;2023-07-28T15:26:51;3.03;;;1.88;;
43118;SDS011;28729;49.838;8.650;2023-07-28T15:30:53;3.03;;;1.60;;
43118;SDS011;28729;49.838;8.650;2023-07-28T15:34:57;3.95;;;2.00;;
43118;SDS011;28729;49.838;8.650;2023-07-28T15:38:59;4.03;;;1.93;;
43118;SDS011;28729;49.838;8.650;2023-07-28T15:43:01;4.57;;;2.03;;
43118;SDS011;28729;49.838;8.650;2023-07-28T15:47:03;3.15;;;1.83;;
43118;SDS011;28729;49.838;8.650;2023-07-28T15:51:05;3.83;;;2.30;;
43118;SDS011;28729;49.838;8.650;2023-07-28T15:55:07;3.63;;;2.27;;
43118;SDS011;28729;49.838;8.650;2023-07-28T15:59:09;3.57;;;2.50;;
43118;SDS011;28729;49.838;8.650;2023-07-28T16:07:34;4.43;;;2.30;;
43118;SDS011;28729;49.838;8.650;2023-07-28T16:11:36;4.93;;;2.50;;
43118;SDS011;28729;49.838;8.650;2023-07-28T16:15:38;5.43;;;2.13;;
43118;SDS011;28729;49.838;8.650;2023-07-28T16:19:40;4.25;;;2.50;;
43118;SDS011;28729;49.838;8.650;2023-07-28T16:23:43;3.67;;;2.10;;
43118;SDS011;28729;49.838;8.650;2023-07-28T16:27:47;3.80;;;2.35;;
43118;SDS011;28729;49.838;8.650;2023-07-28T16:31:56;4.65;;;2.20;;
43118;SDS011;28729;49.838;8.650;2023-07-28T16:35:59;3.45;;;2.08;;
43118;SDS011;28729;49.838;8.650;2023-07-28T16:40:01;3.30;;;1.90;;
43118;SDS011;28729;49.838;8.650;2023-07-28T16:44:03;3.22;;;2.00;;
43118;SDS011;28729;49.838;8.650;2023-07-28T16:48:06;3.40;;;2.28;;
43118;SDS011;28729;49.838;8.650;2023-07-28T16:52:08;4.70;;;2.30;;
43118;SDS011;28729;49.838;8.650;2023-07-28T16:56:09;6.47;;;2.90;;
43118;SDS011;28729;49.838;8.650;2023-07-28T17:00:11;4.20;;;2.53;;
43118;SDS011;28729;49.838;8.650;2023-07-28T17:04:13;5.20;;;3.03;;
43118;SDS011;28729;49.838;8.650;2023-07-28T17:08:15;3.43;;;2.10;;
43118;SDS011;28729;49.838;8.650;2023-07-28T17:12:17;5.95;;;2.33;;
43118;SDS011;28729;49.838;8.650;2023-07-28T17:16:20;5.43;;;2.63;;
43118;SDS011;28729;49.838;8.650;2023-07-28T17:20:23;3.65;;;2.10;;
43118;SDS011;28729;49.838;8.650;2023-07-28T17:24:25;4.10;;;2.50;;
43118;SDS011;28729;49.838;8.650;2023-07-28T17:28:27;6.60;;;2.70;;
43118;SDS011;28729;49.838;8.650;2023-07-28T17:32:29;4.73;;;2.30;;
43118;SDS011;28729;49.838;8.650;2023-07-28T17:36:31;5.20;;;2.23;;
43118;SDS011;28729;49.838;8.650;2023-07-28T17:40:32;4.93;;;2.30;;
43118;SDS011;28729;49.838;8.650;2023-07-28T17:44:34;5.82;;;3.03;;
43118;SDS011;28729;49.838;8.650;2023-07-28T17:48:36;4.25;;;2.60;;
43118;SDS011;28729;49.838;8.650;2023-07-28T17:52:38;5.17;;;3.13;;
43118;SDS011;28729;49.838;8.650;2023-07-28T17:56:39;4.37;;;2.60;;
43118;SDS011;28729;49.838;8.650;2023-07-28T18:00:41;4.27;;;2.63;;
43118;SDS011;28729;49.838;8.650;2023-07-28T18:04:43;4.97;;;3.27;;
43118;SDS011;28729;49.838;8.650;2023-07-28T18:08:45;4.82;;;3.00;;
43118;SDS011;28729;49.838;8.650;2023-07-28T18:12:47;5.53;;;2.60;;
43118;SDS011;28729;49.838;8.650;2023-07-28T18:16:49;3.25;;;2.42;;
43118;SDS011;28729;49.838;8.650;2023-07-28T18:20:50;5.63;;;2.93;;
43118;SDS011;28729;49.838;8.650;2023-07-28T18:24:52;4.53;;;2.58;;
43118;SDS011;28729;49.838;8.650;2023-07-28T18:28:54;4.07;;;1.90;;
43118;SDS011;28729;49.838;8.650;2023-07-28T18:32:56;3.23;;;1.97;;
43118;SDS011;28729;49.838;8.650;2023-07-28T18:36:58;3.67;;;1.77;;
43118;SDS011;28729;49.838;8.650;2023-07-28T18:41:00;5.03;;;1.67;;
43118;SDS011;28729;49.838;8.650;2023-07-28T18:45:02;5.13;;;1.97;;
43118;SDS011;28729;49.838;8.650;2023-07-28T18:49:04;2.70;;;1.87;;
43118;SDS011;28729;49.838;8.650;2023-07-28T18:53:06;8.13;;;2.42;;
43118;SDS011;28729;49.838;8.650;2023-07-28T18:57:08;5.40;;;2.22;;
43118;SDS011;28729;49.838;8.650;2023-07-28T19:01:11;5.30;;;2.30;;
43118;SDS011;28729;49.838;8.650;2023-07-28T19:05:13;4.03;;;2.05;;
43118;SDS011;28729;49.838;8.650;2023-07-28T19:09:15;3.73;;;2.07;;
43118;SDS011;28729;49.838;8.650;2023-07-28T19:13:16;4.30;;;2.42;;
43118;SDS011;28729;49.838;8.650;2023-07-28T19:17:18;5.75;;;2.55;;
43118;SDS011;28729;49.838;8.650;2023-07-28T19:21:21;3.35;;;2.30;;
43118;SDS011;28729;49.838;8.650;2023-07-28T19:25:23;5.03;;;2.23;;
43118;SDS011;28729;49.838;8.650;2023-07-28T19:29:25;3.57;;;2.10;;
43118;SDS011;28729;49.838;8.650;2023-07-28T19:33:27;5.35;;;2.78;;
43118;SDS011;28729;49.838;8.650;2023-07-28T19:37:29;4.68;;;2.28;;
43118;SDS011;28729;49.838;8.650;2023-07-28T19:41:45;4.03;;;2.85;;
43118;SDS011;28729;49.838;8.650;2023-07-28T19:45:47;4.93;;;2.40;;
43118;SDS011;28729;49.838;8.650;2023-07-28T19:49:49;4.90;;;2.83;;
43118;SDS011;28729;49.838;8.650;2023-07-28T19:54:10;4.93;;;2.78;;
43118;SDS011;28729;49.838;8.650;2023-07-28T19:58:13;4.18;;;2.80;;
43118;SDS011;28729;49.838;8.650;2023-07-28T20:02:15;4.45;;;3.17;;
43118;SDS011;28729;49.838;8.650;2023-07-28T20:06:17;6.95;;;3.10;;
43118;SDS011;28729;49.838;8.650;2023-07-28T20:10:19;5.47;;;3.10;;
43118;SDS011;28729;49.838;8.650;2023-07-28T20:14:21;10.15;;;3.95;;
43118;SDS011;28729;49.838;8.650;2023-07-28T20:18:23;8.27;;;4.23;;
43118;SDS011;28729;49.838;8.650;2023-07-28T20:22:25;5.87;;;3.57;;
43118;SDS011;28729;49.838;8.650;2023-07-28T20:26:27;7.72;;;3.92;;
43118;SDS011;28729;49.838;8.650;2023-07-28T20:30:28;6.43;;;4.17;;
43118;SDS011;28729;49.838;8.650;2023-07-28T20:34:30;8.45;;;4.07;;
43118;SDS011;28729;49.838;8.650;2023-07-28T20:38:32;7.63;;;4.22;;
43118;SDS011;28729;49.838;8.650;2023-07-28T20:42:34;6.35;;;3.95;;
43118;SDS011;28729;49.838;8.650;2023-07-28T20:46:35;8.85;;;5.05;;
43118;SDS011;28729;49.838;8.650;2023-07-28T20:50:38;9.32;;;4.65;;
43118;SDS011;28729;49.838;8.650;2023-07-28T20:54:40;6.68;;;3.72;;
43118;SDS011;28729;49.838;8.650;2023-07-28T20:58:42;7.93;;;4.07;;
43118;SDS011;28729;49.838;8.650;2023-07-28T21:02:44;5.97;;;3.58;;
43118;SDS011;28729;49.838;8.650;2023-07-28T21:06:46;7.40;;;3.93;;
43118;SDS011;28729;49.838;8.650;2023-07-28T21:10:48;6.13;;;3.80;;
43118;SDS011;28729;49.838;8.650;2023-07-28T21:14:51;7.97;;;3.60;;
43118;SDS011;28729;49.838;8.650;2023-07-28T21:18:55;5.70;;;3.78;;
43118;SDS011;28729;49.838;8.650;2023-07-28T21:22:56;5.18;;;3.60;;
43118;SDS011;28729;49.838;8.650;2023-07-28T21:26:58;4.13;;;3.20;;
43118;SDS011;28729;49.838;8.650;2023-07-28T21:31:01;5.97;;;3.42;;
43118;SDS011;28729;49.838;8.650;2023-07-28T21:35:03;6.70;;;3.72;;
43118;SDS011;28729;49.838;8.650;2023-07-28T21:39:06;6.38;;;3.33;;
43118;SDS011;28729;49.838;8.650;2023-07-28T21:43:08;6.25;;;3.95;;
43118;SDS011;28729;49.838;8.650;2023-07-28T21:47:09;5.20;;;3.20;;
43118;SDS011;28729;49.838;8.650;2023-07-28T21:51:11;6.15;;;3.25;;
43118;SDS011;28729;49.838;8.650;2023-07-28T21:55:13;5.40;;;3.30;;
43118;SDS011;28729;49.838;8.650;2023-07-28T21:59:15;6.73;;;3.17;;
43118;SDS011;28729;49.838;8.650;2023-07-28T22:03:17;7.50;;;3.50;;
43118;SDS011;28729;49.838;8.650;2023-07-28T22:07:19;6.07;;;4.00;;
43118;SDS011;28729;49.838;8.650;2023-07-28T22:11:21;6.47;;;4.13;;
43118;SDS011;28729;49.838;8.650;2023-07-28T22:15:23;6.73;;;4.37;;
43118;SDS011;28729;49.838;8.650;2023-07-28T22:19:25;8.75;;;4.60;;
43118;SDS011;28729;49.838;8.650;2023-07-28T22:23:27;6.93;;;3.75;;
43118;SDS011;28729;49.838;8.650;2023-07-28T22:27:29;5.80;;;3.83;;
43118;SDS011;28729;49.838;8.650;2023-07-28T22:31:31;6.97;;;3.13;;
43118;SDS011;28729;49.838;8.650;2023-07-28T22:35:33;6.22;;;3.72;;
43118;SDS011;28729;49.838;8.650;2023-07-28T22:39:34;5.05;;;3.75;;
43118;SDS011;28729;49.838;8.650;2023-07-28T22:43:36;4.88;;;3.70;;
43118;SDS011;28729;49.838;8.650;2023-07-28T22:47:38;4.40;;;3.30;;
43118;SDS011;28729;49.838;8.650;2023-07-28T22:51:40;4.28;;;3.03;;
43118;SDS011;28729;49.838;8.650;2023-07-28T22:55:41;9.32;;;3.58;;
43118;SDS011;28729;49.838;8.650;2023-07-28T22:59:43;5.10;;;3.17;;
43118;SDS011;28729;49.838;8.650;2023-07-28T23:03:45;5.10;;;3.42;;
43118;SDS011;28729;49.838;8.650;2023-07-28T23:07:47;5.57;;;3.28;;
43118;SDS011;28729;49.838;8.650;2023-07-28T23:11:48;4.70;;;3.00;;
43118;SDS011;28729;49.838;8.650;2023-07-28T23:15:50;4.47;;;3.43;;
43118;SDS011;28729;49.838;8.650;2023-07-28T23:19:53;5.83;;;3.50;;
43118;SDS011;28729;49.838;8.650;2023-07-28T23:23:54;5.37;;;3.77;;
43118;SDS011;28729;49.838;8.650;2023-07-28T23:27:56;5.78;;;3.63;;
43118;SDS011;28729;49.838;8.650;2023-07-28T23:31:58;5.03;;;3.85;;
43118;SDS011;28729;49.838;8.650;2023-07-28T23:36:00;5.90;;;3.28;;
43118;SDS011;28729;49.838;8.650;2023-07-28T23:40:02;4.03;;;3.03;;
43118;SDS011;28729;49.838;8.650;2023-07-28T23:44:04;4.53;;;2.70;;
43118;SDS011;28729;49.838;8.650;2023-07-28T23:48:06;4.03;;;2.72;;
43118;SDS011;28729;49.838;8.650;2023-07-28T23:52:08;6.53;;;2.70;;
